sensor_id;sensor_type;location;lat;lon;timestamp;P1;durP1;ratioP1;P2;durP2;ratioP2
9485;SDS011;4781;48.776;9.200;2023-06-04T00:00:01;7.67;;;5.42;;
9485;SDS011;4781;48.776;9.200;2023-06-04T00:02:31;10.78;;;5.97;;
9485;SDS011;4781;48.776;9.200;2023-06-04T00:05:00;7.80;;;5.42;;
9485;SDS011;4781;48.776;9.200;2023-06-04T00:07:28;9.58;;;5.53;;
9485;SDS011;4781;48.776;9.200;2023-06-04T00:09:56;12.78;;;6.30;;
9485;SDS011;4781;48.776;9.200;2023-06-04T00:12:25;9.75;;;5.67;;
9485;SDS011;4781;48.776;9.200;2023-06-04T00:14:53;9.85;;;5.72;;
9485;SDS011;4781;48.776;9.200;2023-06-04T00:19:55;7.50;;;5.57;;
9485;SDS011;4781;48.776;9.200;2023-06-04T00:22:24;9.63;;;5.60;;
9485;SDS011;4781;48.776;9.200;2023-06-04T00:24:52;8.90;;;5.90;;
9485;SDS011;4781;48.776;9.200;2023-06-04T00:27:21;9.43;;;5.90;;
9485;SDS011;4781;48.776;9.200;2023-06-04T00:29:49;9.25;;;5.75;;
9485;SDS011;4781;48.776;9.200;2023-06-04T00:32:17;9.55;;;5.72;;
9485;SDS011;4781;48.776;9.200;2023-06-04T00:34:53;10.90;;;6.08;;
9485;SDS011;4781;48.776;9.200;2023-06-04T00:37:24;10.23;;;5.53;;
9485;SDS011;4781;48.776;9.200;2023-06-04T00:39:54;11.55;;;5.87;;
9485;SDS011;4781;48.776;9.200;2023-06-04T00:42:22;10.40;;;5.40;;
9485;SDS011;4781;48.776;9.200;2023-06-04T00:44:51;8.50;;;5.65;;
9485;SDS011;4781;48.776;9.200;2023-06-04T00:47:21;10.15;;;5.47;;
9485;SDS011;4781;48.776;9.200;2023-06-04T00:49:49;8.70;;;5.60;;
9485;SDS011;4781;48.776;9.200;2023-06-04T00:52:20;11.95;;;5.67;;
9485;SDS011;4781;48.776;9.200;2023-06-04T00:54:48;9.40;;;5.62;;
9485;SDS011;4781;48.776;9.200;2023-06-04T00:57:17;8.55;;;5.53;;
9485;SDS011;4781;48.776;9.200;2023-06-04T00:59:46;8.45;;;5.37;;
9485;SDS011;4781;48.776;9.200;2023-06-04T01:02:16;9.10;;;5.62;;
9485;SDS011;4781;48.776;9.200;2023-06-04T01:07:40;8.70;;;5.67;;
9485;SDS011;4781;48.776;9.200;2023-06-04T01:10:10;7.90;;;5.80;;
9485;SDS011;4781;48.776;9.200;2023-06-04T01:12:42;8.10;;;5.60;;
9485;SDS011;4781;48.776;9.200;2023-06-04T01:15:11;8.53;;;5.37;;
9485;SDS011;4781;48.776;9.200;2023-06-04T01:17:40;8.75;;;5.95;;
9485;SDS011;4781;48.776;9.200;2023-06-04T01:20:18;10.15;;;5.92;;
9485;SDS011;4781;48.776;9.200;2023-06-04T01:23:19;9.08;;;5.90;;
9485;SDS011;4781;48.776;9.200;2023-06-04T01:25:55;8.33;;;5.28;;
9485;SDS011;4781;48.776;9.200;2023-06-04T01:28:24;8.15;;;4.97;;
9485;SDS011;4781;48.776;9.200;2023-06-04T01:30:53;9.23;;;6.15;;
9485;SDS011;4781;48.776;9.200;2023-06-04T01:33:22;8.98;;;6.00;;
9485;SDS011;4781;48.776;9.200;2023-06-04T01:35:51;8.73;;;5.78;;
9485;SDS011;4781;48.776;9.200;2023-06-04T01:38:19;8.35;;;5.65;;
9485;SDS011;4781;48.776;9.200;2023-06-04T01:40:47;10.80;;;5.60;;
9485;SDS011;4781;48.776;9.200;2023-06-04T01:43:16;9.28;;;6.30;;
9485;SDS011;4781;48.776;9.200;2023-06-04T01:45:45;11.12;;;6.28;;
9485;SDS011;4781;48.776;9.200;2023-06-04T01:48:14;13.08;;;6.22;;
9485;SDS011;4781;48.776;9.200;2023-06-04T01:50:42;9.50;;;5.75;;
9485;SDS011;4781;48.776;9.200;2023-06-04T01:53:11;9.25;;;6.10;;
9485;SDS011;4781;48.776;9.200;2023-06-04T01:55:39;8.95;;;6.17;;
9485;SDS011;4781;48.776;9.200;2023-06-04T01:58:07;9.35;;;5.65;;
9485;SDS011;4781;48.776;9.200;2023-06-04T02:00:36;11.63;;;6.05;;
9485;SDS011;4781;48.776;9.200;2023-06-04T02:03:04;8.98;;;5.72;;
9485;SDS011;4781;48.776;9.200;2023-06-04T02:05:34;7.60;;;4.80;;
9485;SDS011;4781;48.776;9.200;2023-06-04T02:08:02;6.83;;;4.97;;
9485;SDS011;4781;48.776;9.200;2023-06-04T02:10:31;9.33;;;5.25;;
9485;SDS011;4781;48.776;9.200;2023-06-04T02:13:00;8.35;;;5.00;;
9485;SDS011;4781;48.776;9.200;2023-06-04T02:15:30;7.30;;;4.72;;
9485;SDS011;4781;48.776;9.200;2023-06-04T02:18:00;9.60;;;5.25;;
9485;SDS011;4781;48.776;9.200;2023-06-04T02:20:43;8.25;;;4.92;;
9485;SDS011;4781;48.776;9.200;2023-06-04T02:23:13;9.53;;;5.37;;
9485;SDS011;4781;48.776;9.200;2023-06-04T02:25:43;7.15;;;4.95;;
9485;SDS011;4781;48.776;9.200;2023-06-04T02:28:12;8.55;;;5.20;;
9485;SDS011;4781;48.776;9.200;2023-06-04T02:30:41;8.78;;;5.40;;
9485;SDS011;4781;48.776;9.200;2023-06-04T02:33:12;10.05;;;5.45;;
9485;SDS011;4781;48.776;9.200;2023-06-04T02:35:41;9.45;;;5.62;;
9485;SDS011;4781;48.776;9.200;2023-06-04T02:38:09;7.95;;;5.42;;
9485;SDS011;4781;48.776;9.200;2023-06-04T02:40:38;9.23;;;5.33;;
9485;SDS011;4781;48.776;9.200;2023-06-04T02:43:08;8.93;;;5.20;;
9485;SDS011;4781;48.776;9.200;2023-06-04T02:45:37;9.15;;;5.83;;
9485;SDS011;4781;48.776;9.200;2023-06-04T02:48:05;6.97;;;5.03;;
9485;SDS011;4781;48.776;9.200;2023-06-04T02:50:33;8.35;;;4.90;;
9485;SDS011;4781;48.776;9.200;2023-06-04T02:53:02;8.93;;;4.95;;
9485;SDS011;4781;48.776;9.200;2023-06-04T02:55:32;8.00;;;5.33;;
9485;SDS011;4781;48.776;9.200;2023-06-04T02:58:01;7.55;;;4.83;;
9485;SDS011;4781;48.776;9.200;2023-06-04T03:00:30;8.05;;;4.97;;
9485;SDS011;4781;48.776;9.200;2023-06-04T03:02:58;9.60;;;5.40;;
9485;SDS011;4781;48.776;9.200;2023-06-04T03:05:29;8.53;;;4.67;;
9485;SDS011;4781;48.776;9.200;2023-06-04T03:08:00;8.88;;;4.55;;
9485;SDS011;4781;48.776;9.200;2023-06-04T03:10:29;9.18;;;4.80;;
9485;SDS011;4781;48.776;9.200;2023-06-04T03:12:59;9.13;;;4.40;;
9485;SDS011;4781;48.776;9.200;2023-06-04T03:15:27;7.92;;;4.17;;
9485;SDS011;4781;48.776;9.200;2023-06-04T03:17:56;8.13;;;4.10;;
9485;SDS011;4781;48.776;9.200;2023-06-04T03:20:25;8.23;;;4.00;;
9485;SDS011;4781;48.776;9.200;2023-06-04T03:22:53;7.90;;;4.30;;
9485;SDS011;4781;48.776;9.200;2023-06-04T03:25:22;7.28;;;4.00;;
9485;SDS011;4781;48.776;9.200;2023-06-04T03:27:50;7.33;;;3.83;;
9485;SDS011;4781;48.776;9.200;2023-06-04T03:30:18;10.27;;;4.00;;
9485;SDS011;4781;48.776;9.200;2023-06-04T03:32:47;5.67;;;3.65;;
9485;SDS011;4781;48.776;9.200;2023-06-04T03:35:15;7.20;;;4.17;;
9485;SDS011;4781;48.776;9.200;2023-06-04T03:37:43;6.78;;;3.75;;
9485;SDS011;4781;48.776;9.200;2023-06-04T03:40:12;6.67;;;3.60;;
9485;SDS011;4781;48.776;9.200;2023-06-04T03:42:40;8.33;;;3.83;;
9485;SDS011;4781;48.776;9.200;2023-06-04T03:45:09;10.82;;;4.22;;
9485;SDS011;4781;48.776;9.200;2023-06-04T03:47:38;6.28;;;3.92;;
9485;SDS011;4781;48.776;9.200;2023-06-04T03:50:06;7.05;;;3.87;;
9485;SDS011;4781;48.776;9.200;2023-06-04T03:52:35;7.67;;;4.37;;
9485;SDS011;4781;48.776;9.200;2023-06-04T03:55:04;10.30;;;3.77;;
9485;SDS011;4781;48.776;9.200;2023-06-04T03:57:33;7.03;;;3.70;;
9485;SDS011;4781;48.776;9.200;2023-06-04T04:00:01;4.70;;;2.85;;
9485;SDS011;4781;48.776;9.200;2023-06-04T04:02:29;5.95;;;3.12;;
9485;SDS011;4781;48.776;9.200;2023-06-04T04:04:58;7.37;;;3.47;;
9485;SDS011;4781;48.776;9.200;2023-06-04T04:07:27;5.30;;;3.20;;
9485;SDS011;4781;48.776;9.200;2023-06-04T04:09:55;6.15;;;3.27;;
9485;SDS011;4781;48.776;9.200;2023-06-04T04:12:23;6.05;;;3.90;;
9485;SDS011;4781;48.776;9.200;2023-06-04T04:14:52;7.00;;;3.70;;
9485;SDS011;4781;48.776;9.200;2023-06-04T04:17:20;7.42;;;3.87;;
9485;SDS011;4781;48.776;9.200;2023-06-04T04:19:49;7.65;;;3.70;;
9485;SDS011;4781;48.776;9.200;2023-06-04T04:22:17;5.75;;;3.65;;
9485;SDS011;4781;48.776;9.200;2023-06-04T04:24:46;6.53;;;3.45;;
9485;SDS011;4781;48.776;9.200;2023-06-04T04:27:14;8.28;;;3.47;;
9485;SDS011;4781;48.776;9.200;2023-06-04T04:29:43;8.60;;;3.15;;
9485;SDS011;4781;48.776;9.200;2023-06-04T04:32:13;7.10;;;2.77;;
9485;SDS011;4781;48.776;9.200;2023-06-04T04:34:52;6.62;;;3.17;;
9485;SDS011;4781;48.776;9.200;2023-06-04T04:37:21;5.05;;;3.17;;
9485;SDS011;4781;48.776;9.200;2023-06-04T04:39:49;6.67;;;3.30;;
9485;SDS011;4781;48.776;9.200;2023-06-04T04:42:18;5.10;;;2.98;;
9485;SDS011;4781;48.776;9.200;2023-06-04T04:44:47;11.65;;;3.52;;
9485;SDS011;4781;48.776;9.200;2023-06-04T04:47:16;8.25;;;3.50;;
9485;SDS011;4781;48.776;9.200;2023-06-04T04:49:44;5.37;;;3.22;;
9485;SDS011;4781;48.776;9.200;2023-06-04T04:52:14;10.65;;;3.58;;
9485;SDS011;4781;48.776;9.200;2023-06-04T04:54:43;8.80;;;3.35;;
9485;SDS011;4781;48.776;9.200;2023-06-04T04:57:11;5.58;;;3.17;;
9485;SDS011;4781;48.776;9.200;2023-06-04T04:59:39;6.50;;;3.15;;
9485;SDS011;4781;48.776;9.200;2023-06-04T05:02:08;5.40;;;3.00;;
9485;SDS011;4781;48.776;9.200;2023-06-04T05:04:36;6.62;;;2.90;;
9485;SDS011;4781;48.776;9.200;2023-06-04T05:07:05;8.05;;;3.45;;
9485;SDS011;4781;48.776;9.200;2023-06-04T05:09:33;6.62;;;3.62;;
9485;SDS011;4781;48.776;9.200;2023-06-04T05:12:01;5.03;;;2.90;;
9485;SDS011;4781;48.776;9.200;2023-06-04T05:14:30;5.53;;;3.15;;
9485;SDS011;4781;48.776;9.200;2023-06-04T05:17:01;6.80;;;3.05;;
9485;SDS011;4781;48.776;9.200;2023-06-04T05:19:29;5.42;;;3.00;;
9485;SDS011;4781;48.776;9.200;2023-06-04T05:21:59;7.30;;;2.72;;
9485;SDS011;4781;48.776;9.200;2023-06-04T05:24:27;5.75;;;2.47;;
9485;SDS011;4781;48.776;9.200;2023-06-04T05:26:56;5.30;;;2.83;;
9485;SDS011;4781;48.776;9.200;2023-06-04T05:29:24;7.40;;;3.30;;
9485;SDS011;4781;48.776;9.200;2023-06-04T05:31:53;6.35;;;2.77;;
9485;SDS011;4781;48.776;9.200;2023-06-04T05:34:21;6.95;;;2.67;;
9485;SDS011;4781;48.776;9.200;2023-06-04T05:36:50;8.03;;;2.90;;
9485;SDS011;4781;48.776;9.200;2023-06-04T05:39:18;7.97;;;2.98;;
9485;SDS011;4781;48.776;9.200;2023-06-04T05:41:48;7.62;;;3.22;;
9485;SDS011;4781;48.776;9.200;2023-06-04T05:44:17;6.62;;;2.80;;
9485;SDS011;4781;48.776;9.200;2023-06-04T05:46:45;9.03;;;2.92;;
9485;SDS011;4781;48.776;9.200;2023-06-04T05:49:14;5.70;;;2.70;;
9485;SDS011;4781;48.776;9.200;2023-06-04T05:51:43;5.20;;;2.33;;
9485;SDS011;4781;48.776;9.200;2023-06-04T05:54:11;7.12;;;2.40;;
9485;SDS011;4781;48.776;9.200;2023-06-04T05:56:39;6.87;;;2.30;;
9485;SDS011;4781;48.776;9.200;2023-06-04T05:59:08;6.00;;;2.60;;
9485;SDS011;4781;48.776;9.200;2023-06-04T06:01:36;6.72;;;2.90;;
9485;SDS011;4781;48.776;9.200;2023-06-04T06:04:05;4.67;;;2.30;;
9485;SDS011;4781;48.776;9.200;2023-06-04T06:06:33;5.47;;;2.50;;
9485;SDS011;4781;48.776;9.200;2023-06-04T06:09:03;4.62;;;2.70;;
9485;SDS011;4781;48.776;9.200;2023-06-04T06:11:31;4.30;;;2.27;;
9485;SDS011;4781;48.776;9.200;2023-06-04T06:14:00;6.92;;;2.45;;
9485;SDS011;4781;48.776;9.200;2023-06-04T06:16:28;5.95;;;2.30;;
9485;SDS011;4781;48.776;9.200;2023-06-04T06:18:58;5.03;;;2.27;;
9485;SDS011;4781;48.776;9.200;2023-06-04T06:21:27;5.17;;;2.30;;
9485;SDS011;4781;48.776;9.200;2023-06-04T06:23:56;5.05;;;2.22;;
9485;SDS011;4781;48.776;9.200;2023-06-04T06:26:24;4.87;;;2.33;;
9485;SDS011;4781;48.776;9.200;2023-06-04T06:28:53;5.30;;;2.33;;
9485;SDS011;4781;48.776;9.200;2023-06-04T06:31:22;5.28;;;2.40;;
9485;SDS011;4781;48.776;9.200;2023-06-04T06:33:50;5.05;;;2.37;;
9485;SDS011;4781;48.776;9.200;2023-06-04T06:36:18;6.15;;;2.60;;
9485;SDS011;4781;48.776;9.200;2023-06-04T06:38:47;4.75;;;2.15;;
9485;SDS011;4781;48.776;9.200;2023-06-04T06:41:16;6.12;;;2.40;;
9485;SDS011;4781;48.776;9.200;2023-06-04T06:43:45;6.62;;;2.20;;
9485;SDS011;4781;48.776;9.200;2023-06-04T06:46:13;4.40;;;2.30;;
9485;SDS011;4781;48.776;9.200;2023-06-04T06:48:42;6.12;;;2.15;;
9485;SDS011;4781;48.776;9.200;2023-06-04T06:51:11;5.22;;;2.30;;
9485;SDS011;4781;48.776;9.200;2023-06-04T06:53:39;10.10;;;2.17;;
9485;SDS011;4781;48.776;9.200;2023-06-04T06:56:08;6.65;;;2.10;;
9485;SDS011;4781;48.776;9.200;2023-06-04T06:58:36;5.62;;;2.33;;
9485;SDS011;4781;48.776;9.200;2023-06-04T07:01:05;5.62;;;2.27;;
9485;SDS011;4781;48.776;9.200;2023-06-04T07:03:34;9.55;;;2.30;;
9485;SDS011;4781;48.776;9.200;2023-06-04T07:06:03;5.35;;;2.55;;
9485;SDS011;4781;48.776;9.200;2023-06-04T07:08:32;6.25;;;2.37;;
9485;SDS011;4781;48.776;9.200;2023-06-04T07:11:01;5.70;;;2.20;;
9485;SDS011;4781;48.776;9.200;2023-06-04T07:13:30;8.05;;;2.85;;
9485;SDS011;4781;48.776;9.200;2023-06-04T07:16:01;6.45;;;2.20;;
9485;SDS011;4781;48.776;9.200;2023-06-04T07:18:29;5.05;;;2.20;;
9485;SDS011;4781;48.776;9.200;2023-06-04T07:20:58;4.28;;;2.17;;
9485;SDS011;4781;48.776;9.200;2023-06-04T07:23:27;4.85;;;2.37;;
9485;SDS011;4781;48.776;9.200;2023-06-04T07:25:55;6.22;;;2.27;;
9485;SDS011;4781;48.776;9.200;2023-06-04T07:28:24;6.47;;;2.50;;
9485;SDS011;4781;48.776;9.200;2023-06-04T07:30:52;5.20;;;2.50;;
9485;SDS011;4781;48.776;9.200;2023-06-04T07:33:21;7.70;;;2.52;;
9485;SDS011;4781;48.776;9.200;2023-06-04T07:35:49;6.15;;;2.12;;
9485;SDS011;4781;48.776;9.200;2023-06-04T07:38:18;4.92;;;2.70;;
9485;SDS011;4781;48.776;9.200;2023-06-04T07:40:46;4.62;;;2.33;;
9485;SDS011;4781;48.776;9.200;2023-06-04T07:43:15;4.33;;;2.20;;
9485;SDS011;4781;48.776;9.200;2023-06-04T07:45:43;5.20;;;2.65;;
9485;SDS011;4781;48.776;9.200;2023-06-04T07:48:12;5.58;;;2.50;;
9485;SDS011;4781;48.776;9.200;2023-06-04T07:50:40;5.15;;;2.47;;
9485;SDS011;4781;48.776;9.200;2023-06-04T07:53:08;4.35;;;2.27;;
9485;SDS011;4781;48.776;9.200;2023-06-04T07:55:37;5.10;;;2.45;;
9485;SDS011;4781;48.776;9.200;2023-06-04T07:58:05;4.45;;;2.67;;
9485;SDS011;4781;48.776;9.200;2023-06-04T08:00:33;8.13;;;2.55;;
9485;SDS011;4781;48.776;9.200;2023-06-04T08:03:02;5.35;;;2.55;;
9485;SDS011;4781;48.776;9.200;2023-06-04T08:05:31;5.72;;;2.60;;
9485;SDS011;4781;48.776;9.200;2023-06-04T08:07:59;6.42;;;2.60;;
9485;SDS011;4781;48.776;9.200;2023-06-04T08:10:29;7.55;;;2.58;;
9485;SDS011;4781;48.776;9.200;2023-06-04T08:12:58;4.33;;;2.12;;
9485;SDS011;4781;48.776;9.200;2023-06-04T08:15:26;5.58;;;2.58;;
9485;SDS011;4781;48.776;9.200;2023-06-04T08:17:54;6.00;;;2.70;;
9485;SDS011;4781;48.776;9.200;2023-06-04T08:20:23;5.78;;;2.58;;
9485;SDS011;4781;48.776;9.200;2023-06-04T08:22:52;8.80;;;2.65;;
9485;SDS011;4781;48.776;9.200;2023-06-04T08:25:20;5.00;;;2.60;;
9485;SDS011;4781;48.776;9.200;2023-06-04T08:27:48;5.28;;;2.58;;
9485;SDS011;4781;48.776;9.200;2023-06-04T08:30:17;5.17;;;2.30;;
9485;SDS011;4781;48.776;9.200;2023-06-04T08:32:45;5.78;;;2.50;;
9485;SDS011;4781;48.776;9.200;2023-06-04T08:35:16;7.35;;;2.58;;
9485;SDS011;4781;48.776;9.200;2023-06-04T08:37:44;5.17;;;2.75;;
9485;SDS011;4781;48.776;9.200;2023-06-04T08:40:12;4.97;;;2.52;;
9485;SDS011;4781;48.776;9.200;2023-06-04T08:42:42;8.00;;;2.60;;
9485;SDS011;4781;48.776;9.200;2023-06-04T08:45:12;5.80;;;2.50;;
9485;SDS011;4781;48.776;9.200;2023-06-04T08:47:44;6.75;;;2.75;;
9485;SDS011;4781;48.776;9.200;2023-06-04T08:50:18;7.17;;;2.67;;
9485;SDS011;4781;48.776;9.200;2023-06-04T08:52:54;4.90;;;2.50;;
9485;SDS011;4781;48.776;9.200;2023-06-04T08:55:23;5.58;;;2.42;;
9485;SDS011;4781;48.776;9.200;2023-06-04T08:57:51;5.42;;;2.60;;
9485;SDS011;4781;48.776;9.200;2023-06-04T09:00:20;4.80;;;2.47;;
9485;SDS011;4781;48.776;9.200;2023-06-04T09:02:49;6.25;;;2.70;;
9485;SDS011;4781;48.776;9.200;2023-06-04T09:05:21;7.17;;;2.65;;
9485;SDS011;4781;48.776;9.200;2023-06-04T09:07:56;7.83;;;2.50;;
9485;SDS011;4781;48.776;9.200;2023-06-04T09:10:22;6.25;;;3.00;;
9485;SDS011;4781;48.776;9.200;2023-06-04T09:12:52;6.72;;;2.50;;
9485;SDS011;4781;48.776;9.200;2023-06-04T09:15:21;7.50;;;2.85;;
9485;SDS011;4781;48.776;9.200;2023-06-04T09:17:49;5.22;;;2.50;;
9485;SDS011;4781;48.776;9.200;2023-06-04T09:20:19;6.70;;;2.40;;
9485;SDS011;4781;48.776;9.200;2023-06-04T09:22:51;6.53;;;2.47;;
9485;SDS011;4781;48.776;9.200;2023-06-04T09:25:26;4.00;;;2.50;;
9485;SDS011;4781;48.776;9.200;2023-06-04T09:27:56;4.72;;;2.62;;
9485;SDS011;4781;48.776;9.200;2023-06-04T09:30:28;5.17;;;2.57;;
9485;SDS011;4781;48.776;9.200;2023-06-04T09:33:05;7.50;;;2.62;;
9485;SDS011;4781;48.776;9.200;2023-06-04T09:35:37;5.50;;;2.55;;
9485;SDS011;4781;48.776;9.200;2023-06-04T09:38:06;7.33;;;2.70;;
9485;SDS011;4781;48.776;9.200;2023-06-04T09:40:35;7.45;;;2.92;;
9485;SDS011;4781;48.776;9.200;2023-06-04T09:43:04;5.17;;;2.75;;
9485;SDS011;4781;48.776;9.200;2023-06-04T09:45:34;5.55;;;2.70;;
9485;SDS011;4781;48.776;9.200;2023-06-04T09:48:02;6.00;;;2.80;;
9485;SDS011;4781;48.776;9.200;2023-06-04T09:50:32;8.95;;;2.70;;
9485;SDS011;4781;48.776;9.200;2023-06-04T09:53:13;14.43;;;3.17;;
9485;SDS011;4781;48.776;9.200;2023-06-04T09:55:57;7.03;;;3.20;;
9485;SDS011;4781;48.776;9.200;2023-06-04T09:58:32;6.72;;;3.20;;
9485;SDS011;4781;48.776;9.200;2023-06-04T10:00:58;12.33;;;3.10;;
9485;SDS011;4781;48.776;9.200;2023-06-04T10:03:33;7.67;;;3.00;;
9485;SDS011;4781;48.776;9.200;2023-06-04T10:06:03;6.67;;;3.65;;
9485;SDS011;4781;48.776;9.200;2023-06-04T10:08:33;5.12;;;3.02;;
9485;SDS011;4781;48.776;9.200;2023-06-04T10:11:02;5.72;;;3.30;;
9485;SDS011;4781;48.776;9.200;2023-06-04T10:13:35;7.85;;;3.05;;
9485;SDS011;4781;48.776;9.200;2023-06-04T10:16:07;6.00;;;3.30;;
9485;SDS011;4781;48.776;9.200;2023-06-04T10:18:37;6.08;;;3.20;;
9485;SDS011;4781;48.776;9.200;2023-06-04T10:21:06;12.25;;;3.37;;
9485;SDS011;4781;48.776;9.200;2023-06-04T10:23:36;5.25;;;3.10;;
9485;SDS011;4781;48.776;9.200;2023-06-04T10:26:06;8.93;;;3.50;;
9485;SDS011;4781;48.776;9.200;2023-06-04T10:28:36;5.08;;;3.00;;
9485;SDS011;4781;48.776;9.200;2023-06-04T10:31:04;5.35;;;3.20;;
9485;SDS011;4781;48.776;9.200;2023-06-04T10:33:33;5.20;;;3.50;;
9485;SDS011;4781;48.776;9.200;2023-06-04T10:36:15;5.55;;;3.25;;
9485;SDS011;4781;48.776;9.200;2023-06-04T10:38:45;5.67;;;3.12;;
9485;SDS011;4781;48.776;9.200;2023-06-04T10:41:16;6.05;;;3.05;;
9485;SDS011;4781;48.776;9.200;2023-06-04T10:43:47;6.35;;;3.42;;
9485;SDS011;4781;48.776;9.200;2023-06-04T10:46:17;5.53;;;3.15;;
9485;SDS011;4781;48.776;9.200;2023-06-04T10:48:50;7.15;;;3.35;;
9485;SDS011;4781;48.776;9.200;2023-06-04T10:51:29;6.37;;;3.08;;
9485;SDS011;4781;48.776;9.200;2023-06-04T10:53:59;9.08;;;3.08;;
9485;SDS011;4781;48.776;9.200;2023-06-04T10:56:30;5.03;;;2.83;;
9485;SDS011;4781;48.776;9.200;2023-06-04T10:59:17;6.10;;;2.72;;
9485;SDS011;4781;48.776;9.200;2023-06-04T11:01:44;5.53;;;3.08;;
9485;SDS011;4781;48.776;9.200;2023-06-04T11:04:22;9.18;;;3.30;;
9485;SDS011;4781;48.776;9.200;2023-06-04T11:09:47;5.35;;;2.95;;
9485;SDS011;4781;48.776;9.200;2023-06-04T11:12:17;6.05;;;3.20;;
9485;SDS011;4781;48.776;9.200;2023-06-04T11:14:58;5.25;;;3.37;;
9485;SDS011;4781;48.776;9.200;2023-06-04T11:17:26;7.72;;;3.30;;
9485;SDS011;4781;48.776;9.200;2023-06-04T11:19:56;5.55;;;3.27;;
9485;SDS011;4781;48.776;9.200;2023-06-04T11:22:26;7.90;;;3.33;;
9485;SDS011;4781;48.776;9.200;2023-06-04T11:24:58;5.58;;;3.00;;
9485;SDS011;4781;48.776;9.200;2023-06-04T11:27:26;6.00;;;3.27;;
9485;SDS011;4781;48.776;9.200;2023-06-04T11:29:55;7.42;;;3.35;;
9485;SDS011;4781;48.776;9.200;2023-06-04T11:32:24;5.95;;;3.10;;
9485;SDS011;4781;48.776;9.200;2023-06-04T11:35:01;6.30;;;3.17;;
9485;SDS011;4781;48.776;9.200;2023-06-04T11:37:37;6.15;;;3.10;;
9485;SDS011;4781;48.776;9.200;2023-06-04T11:40:16;6.28;;;3.17;;
9485;SDS011;4781;48.776;9.200;2023-06-04T11:42:46;7.00;;;3.55;;
9485;SDS011;4781;48.776;9.200;2023-06-04T11:45:16;8.23;;;3.62;;
9485;SDS011;4781;48.776;9.200;2023-06-04T11:47:46;8.53;;;3.35;;
9485;SDS011;4781;48.776;9.200;2023-06-04T11:50:17;6.33;;;3.62;;
9485;SDS011;4781;48.776;9.200;2023-06-04T11:52:47;6.37;;;3.42;;
9485;SDS011;4781;48.776;9.200;2023-06-04T11:55:16;4.80;;;3.00;;
9485;SDS011;4781;48.776;9.200;2023-06-04T11:57:46;5.08;;;3.22;;
9485;SDS011;4781;48.776;9.200;2023-06-04T12:00:16;5.67;;;3.00;;
9485;SDS011;4781;48.776;9.200;2023-06-04T12:02:49;6.30;;;3.52;;
9485;SDS011;4781;48.776;9.200;2023-06-04T12:05:19;7.15;;;2.87;;
9485;SDS011;4781;48.776;9.200;2023-06-04T12:07:50;6.45;;;3.20;;
9485;SDS011;4781;48.776;9.200;2023-06-04T12:10:19;6.92;;;3.20;;
9485;SDS011;4781;48.776;9.200;2023-06-04T12:12:56;9.85;;;3.98;;
9485;SDS011;4781;48.776;9.200;2023-06-04T12:15:24;7.70;;;3.35;;
9485;SDS011;4781;48.776;9.200;2023-06-04T12:17:53;5.03;;;3.25;;
9485;SDS011;4781;48.776;9.200;2023-06-04T12:20:36;5.67;;;3.62;;
9485;SDS011;4781;48.776;9.200;2023-06-04T12:23:02;6.30;;;3.62;;
9485;SDS011;4781;48.776;9.200;2023-06-04T12:25:32;7.30;;;3.75;;
9485;SDS011;4781;48.776;9.200;2023-06-04T12:28:03;7.58;;;3.55;;
9485;SDS011;4781;48.776;9.200;2023-06-04T12:30:35;4.92;;;3.55;;
9485;SDS011;4781;48.776;9.200;2023-06-04T12:33:04;8.38;;;3.70;;
9485;SDS011;4781;48.776;9.200;2023-06-04T12:35:33;6.55;;;3.65;;
9485;SDS011;4781;48.776;9.200;2023-06-04T12:38:03;6.03;;;3.47;;
9485;SDS011;4781;48.776;9.200;2023-06-04T12:40:33;6.80;;;3.30;;
9485;SDS011;4781;48.776;9.200;2023-06-04T12:43:01;5.70;;;3.17;;
9485;SDS011;4781;48.776;9.200;2023-06-04T12:45:32;6.62;;;3.40;;
9485;SDS011;4781;48.776;9.200;2023-06-04T12:48:01;6.03;;;3.72;;
9485;SDS011;4781;48.776;9.200;2023-06-04T12:50:29;6.08;;;3.55;;
9485;SDS011;4781;48.776;9.200;2023-06-04T12:52:57;5.50;;;3.30;;
9485;SDS011;4781;48.776;9.200;2023-06-04T12:55:26;7.12;;;3.47;;
9485;SDS011;4781;48.776;9.200;2023-06-04T12:57:54;5.62;;;3.52;;
9485;SDS011;4781;48.776;9.200;2023-06-04T13:00:22;5.37;;;3.50;;
9485;SDS011;4781;48.776;9.200;2023-06-04T13:02:51;5.90;;;3.50;;
9485;SDS011;4781;48.776;9.200;2023-06-04T13:05:19;5.42;;;3.00;;
9485;SDS011;4781;48.776;9.200;2023-06-04T13:07:48;6.28;;;3.77;;
9485;SDS011;4781;48.776;9.200;2023-06-04T13:10:17;9.85;;;3.50;;
9485;SDS011;4781;48.776;9.200;2023-06-04T13:12:46;8.03;;;3.62;;
9485;SDS011;4781;48.776;9.200;2023-06-04T13:15:15;6.62;;;3.33;;
9485;SDS011;4781;48.776;9.200;2023-06-04T13:17:43;6.62;;;3.90;;
9485;SDS011;4781;48.776;9.200;2023-06-04T13:20:12;6.58;;;4.00;;
9485;SDS011;4781;48.776;9.200;2023-06-04T13:22:40;6.22;;;3.92;;
9485;SDS011;4781;48.776;9.200;2023-06-04T13:25:09;9.35;;;3.75;;
9485;SDS011;4781;48.776;9.200;2023-06-04T13:27:38;5.62;;;3.60;;
9485;SDS011;4781;48.776;9.200;2023-06-04T13:30:07;5.58;;;3.65;;
9485;SDS011;4781;48.776;9.200;2023-06-04T13:32:36;8.55;;;3.72;;
9485;SDS011;4781;48.776;9.200;2023-06-04T13:35:04;7.25;;;3.42;;
9485;SDS011;4781;48.776;9.200;2023-06-04T13:37:33;6.22;;;3.58;;
9485;SDS011;4781;48.776;9.200;2023-06-04T13:40:02;5.10;;;3.22;;
9485;SDS011;4781;48.776;9.200;2023-06-04T13:42:31;6.62;;;3.62;;
9485;SDS011;4781;48.776;9.200;2023-06-04T13:44:59;5.33;;;3.62;;
9485;SDS011;4781;48.776;9.200;2023-06-04T13:47:29;5.17;;;3.27;;
9485;SDS011;4781;48.776;9.200;2023-06-04T13:49:58;5.60;;;3.20;;
9485;SDS011;4781;48.776;9.200;2023-06-04T13:52:26;4.78;;;3.17;;
9485;SDS011;4781;48.776;9.200;2023-06-04T13:54:55;4.92;;;3.37;;
9485;SDS011;4781;48.776;9.200;2023-06-04T13:57:24;5.95;;;4.00;;
9485;SDS011;4781;48.776;9.200;2023-06-04T13:59:53;5.35;;;3.40;;
9485;SDS011;4781;48.776;9.200;2023-06-04T14:02:22;7.42;;;3.75;;
9485;SDS011;4781;48.776;9.200;2023-06-04T14:04:52;6.92;;;3.70;;
9485;SDS011;4781;48.776;9.200;2023-06-04T14:07:21;5.85;;;3.87;;
9485;SDS011;4781;48.776;9.200;2023-06-04T14:09:50;5.03;;;3.42;;
9485;SDS011;4781;48.776;9.200;2023-06-04T14:12:21;5.75;;;4.08;;
9485;SDS011;4781;48.776;9.200;2023-06-04T14:14:50;6.72;;;4.15;;
9485;SDS011;4781;48.776;9.200;2023-06-04T14:17:18;8.08;;;3.77;;
9485;SDS011;4781;48.776;9.200;2023-06-04T14:19:47;6.92;;;3.70;;
9485;SDS011;4781;48.776;9.200;2023-06-04T14:22:15;6.30;;;3.12;;
9485;SDS011;4781;48.776;9.200;2023-06-04T14:24:44;5.67;;;3.10;;
9485;SDS011;4781;48.776;9.200;2023-06-04T14:27:12;5.50;;;2.83;;
9485;SDS011;4781;48.776;9.200;2023-06-04T14:29:41;5.37;;;3.10;;
9485;SDS011;4781;48.776;9.200;2023-06-04T14:32:09;5.43;;;3.10;;
9485;SDS011;4781;48.776;9.200;2023-06-04T14:34:38;6.72;;;3.20;;
9485;SDS011;4781;48.776;9.200;2023-06-04T14:37:06;7.58;;;3.60;;
9485;SDS011;4781;48.776;9.200;2023-06-04T14:39:34;5.00;;;3.20;;
9485;SDS011;4781;48.776;9.200;2023-06-04T14:42:04;5.85;;;3.70;;
9485;SDS011;4781;48.776;9.200;2023-06-04T14:44:32;7.45;;;3.80;;
9485;SDS011;4781;48.776;9.200;2023-06-04T14:47:01;7.97;;;3.95;;
9485;SDS011;4781;48.776;9.200;2023-06-04T14:49:32;6.05;;;4.05;;
9485;SDS011;4781;48.776;9.200;2023-06-04T14:52:00;5.58;;;3.77;;
9485;SDS011;4781;48.776;9.200;2023-06-04T14:54:28;5.25;;;3.35;;
9485;SDS011;4781;48.776;9.200;2023-06-04T14:56:57;5.17;;;3.12;;
9485;SDS011;4781;48.776;9.200;2023-06-04T14:59:25;5.95;;;3.10;;
9485;SDS011;4781;48.776;9.200;2023-06-04T15:01:55;5.70;;;3.57;;
9485;SDS011;4781;48.776;9.200;2023-06-04T15:04:24;8.05;;;3.98;;
9485;SDS011;4781;48.776;9.200;2023-06-04T15:06:52;5.55;;;3.87;;
9485;SDS011;4781;48.776;9.200;2023-06-04T15:09:20;8.88;;;3.50;;
9485;SDS011;4781;48.776;9.200;2023-06-04T15:11:49;8.63;;;3.87;;
9485;SDS011;4781;48.776;9.200;2023-06-04T15:14:17;7.78;;;3.10;;
9485;SDS011;4781;48.776;9.200;2023-06-04T15:16:46;8.30;;;3.27;;
9485;SDS011;4781;48.776;9.200;2023-06-04T15:19:14;5.67;;;3.52;;
9485;SDS011;4781;48.776;9.200;2023-06-04T15:21:42;5.33;;;3.47;;
9485;SDS011;4781;48.776;9.200;2023-06-04T15:24:11;5.70;;;3.60;;
9485;SDS011;4781;48.776;9.200;2023-06-04T15:26:39;4.55;;;3.17;;
9485;SDS011;4781;48.776;9.200;2023-06-04T15:29:08;7.10;;;3.30;;
9485;SDS011;4781;48.776;9.200;2023-06-04T15:31:36;5.67;;;3.65;;
9485;SDS011;4781;48.776;9.200;2023-06-04T15:34:05;5.53;;;3.27;;
9485;SDS011;4781;48.776;9.200;2023-06-04T15:36:33;6.00;;;3.75;;